Time;durP1;ratioP1;P1;durP2;ratioP2;P2;SDS_P1;SDS_P2;PMS_P1;PMS_P2;Temp;Humidity;BMP_temperature;BMP_pressure;BME280_temperature;BME280_humidity;BME280_pressure;Samples;Min_cycle;Max_cycle;Signal;HPM_P1;HPM_P2
2022/06/01 00:00:25;;;;;;;13.23;12.02;;;12.10;99.90;;;;;;5000670;28;20042;-50
2022/06/01 00:02:51;;;;;;;13.52;12.25;;;12.10;99.90;;;;;;5001422;28;20070;-50
2022/06/01 00:05:16;;;;;;;13.60;12.40;;;12.10;99.90;;;;;;4983724;28;20077;-50
2022/06/01 00:07:42;;;;;;;13.07;11.90;;;12.10;99.90;;;;;;5000766;28;20346;-52
2022/06/01 00:10:08;;;;;;;13.35;12.15;;;12.00;99.90;;;;;;4998732;28;20045;-49
2022/06/01 00:12:35;;;;;;;13.45;12.32;;;12.00;99.90;;;;;;5005149;28;20604;-52
2022/06/01 00:15:03;;;;;;;13.60;12.30;;;12.00;99.90;;;;;;5005501;28;20042;-50
2022/06/01 00:17:29;;;;;;;13.60;12.30;;;11.90;99.90;;;;;;5008769;28;20320;-52
2022/06/01 00:19:54;;;;;;;14.05;12.75;;;11.90;99.90;;;;;;5004406;28;20030;-55
2022/06/01 00:22:20;;;;;;;14.40;12.98;;;11.90;99.90;;;;;;5001688;28;20095;-51
2022/06/01 00:24:47;;;;;;;13.60;12.38;;;11.80;99.90;;;;;;5003234;28;20033;-53
2022/06/01 00:27:14;;;;;;;15.30;13.80;;;11.80;99.90;;;;;;5001981;28;20472;-53
2022/06/01 00:29:40;;;;;;;15.57;14.18;;;11.80;99.90;;;;;;5003068;28;20215;-53
2022/06/01 00:32:08;;;;;;;15.32;13.55;;;11.70;99.90;;;;;;5000102;28;20050;-49
2022/06/01 00:34:34;;;;;;;15.60;14.10;;;11.70;99.90;;;;;;4999730;28;20534;-49
2022/06/01 00:37:00;;;;;;;16.35;14.85;;;11.70;99.90;;;;;;5000103;28;20132;-53
2022/06/01 00:39:26;;;;;;;18.92;16.92;;;11.70;99.90;;;;;;4997758;28;20052;-51
2022/06/01 00:41:52;;;;;;;18.02;16.42;;;11.70;99.90;;;;;;4996551;28;20040;-51
2022/06/01 00:44:17;;;;;;;16.73;15.13;;;11.70;99.90;;;;;;4999073;28;20401;-52
2022/06/01 00:46:43;;;;;;;17.75;15.93;;;11.70;99.90;;;;;;4999916;28;20080;-49
2022/06/01 00:49:21;;;;;;;16.52;15.13;;;11.70;99.90;;;;;;5004293;28;20042;-48
2022/06/01 00:51:48;;;;;;;18.02;16.35;;;11.70;99.90;;;;;;5001484;28;20072;-49
2022/06/01 00:54:15;;;;;;;19.27;17.48;;;11.70;99.90;;;;;;4999877;28;20060;-48
2022/06/01 00:56:49;;;;;;;16.02;14.63;;;11.70;99.90;;;;;;5000292;28;20045;-50
2022/06/01 00:59:19;;;;;;;18.73;17.02;;;11.70;99.90;;;;;;4998767;28;20060;-51
2022/06/01 01:01:46;;;;;;;18.67;16.92;;;11.70;99.90;;;;;;5022058;28;20103;-50
2022/06/01 01:04:12;;;;;;;17.25;15.80;;;11.70;99.90;;;;;;4998158;28;20440;-52
2022/06/01 01:06:41;;;;;;;18.73;17.02;;;11.70;99.90;;;;;;5001080;28;20465;-49
2022/06/01 01:09:09;;;;;;;18.13;16.42;;;11.70;99.90;;;;;;4996930;28;20447;-51
2022/06/01 01:11:52;;;;;;;19.10;17.33;;;11.60;99.90;;;;;;4999253;28;20042;-49
2022/06/01 01:14:21;;;;;;;18.45;16.50;;;11.60;99.90;;;;;;4999484;28;20643;-50
2022/06/01 01:16:51;;;;;;;14.82;13.40;;;11.60;99.90;;;;;;4999667;28;20085;-51
2022/06/01 01:19:32;;;;;;;16.88;15.38;;;11.60;99.90;;;;;;4999862;28;20603;-48
2022/06/01 01:22:20;;;;;;;15.48;14.13;;;11.60;99.90;;;;;;5000361;28;20072;-49
2022/06/01 01:25:13;;;;;;;16.95;15.30;;;11.60;99.90;;;;;;4999199;28;20049;-51
2022/06/01 01:27:39;;;;;;;16.60;15.10;;;11.60;99.90;;;;;;4997882;28;20492;-51
2022/06/01 01:30:48;;;;;;;16.20;14.43;;;11.60;99.90;;;;;;4998859;28;20045;-50
2022/06/01 01:33:20;;;;;;;16.05;14.65;;;11.60;99.90;;;;;;4918538;29;20047;-49
2022/06/01 01:35:49;;;;;;;16.10;14.40;;;11.60;99.90;;;;;;4918914;29;20139;-50
2022/06/01 01:38:52;;;;;;;17.13;15.63;;;11.60;99.90;;;;;;4916232;29;20479;-50
2022/06/01 01:41:28;;;;;;;16.50;15.00;;;11.60;99.90;;;;;;4913259;29;20055;-51
2022/06/01 01:44:04;;;;;;;16.27;14.68;;;11.60;99.90;;;;;;4914613;29;20052;-49
2022/06/01 01:46:30;;;;;;;16.88;15.38;;;11.60;99.90;;;;;;4914588;29;20044;-50
2022/06/01 01:48:56;;;;;;;17.10;15.60;;;11.60;99.90;;;;;;4917893;29;20123;-48
2022/06/01 01:51:25;;;;;;;16.73;15.13;;;11.60;99.90;;;;;;4920363;29;20142;-49
2022/06/01 01:53:53;;;;;;;16.60;15.13;;;11.60;99.90;;;;;;4918012;29;20044;-48
2022/06/01 01:56:32;;;;;;;16.85;15.45;;;11.60;99.90;;;;;;4916658;29;20142;-47
2022/06/01 01:59:47;;;;;;;17.10;15.50;;;11.60;99.90;;;;;;4919448;29;20561;-49
2022/06/01 02:02:20;;;;;;;17.15;15.55;;;11.60;99.90;;;;;;4889845;29;20048;-51
2022/06/01 02:08:07;;;;;;;16.17;14.48;;;11.50;99.90;;;;;;4962870;28;20104;-48
2022/06/01 02:13:20;;;;;;;16.63;15.13;;;11.50;99.90;;;;;;4964425;28;20058;-50
2022/06/01 02:15:49;;;;;;;17.38;15.68;;;11.50;99.90;;;;;;4962919;28;20069;-48
2022/06/01 02:18:21;;;;;;;17.15;15.65;;;11.50;99.90;;;;;;4947139;28;20385;-51
2022/06/01 02:21:12;;;;;;;16.92;15.38;;;11.50;99.90;;;;;;4961990;28;20172;-54
2022/06/01 02:23:39;;;;;;;17.55;16.05;;;11.50;99.90;;;;;;4958218;28;20141;-50
2022/06/01 02:26:05;;;;;;;16.77;15.23;;;11.50;99.90;;;;;;4961872;28;20625;-52
2022/06/01 02:28:32;;;;;;;17.20;15.50;;;11.50;99.90;;;;;;4962383;28;20047;-49
2022/06/01 02:31:00;;;;;;;17.70;16.20;;;11.50;99.90;;;;;;4962697;28;20055;-49
2022/06/01 02:33:28;;;;;;;17.77;16.08;;;11.50;99.90;;;;;;4988200;28;20128;-51
2022/06/01 02:35:58;;;;;;;17.30;15.75;;;11.50;99.90;;;;;;4999406;28;20046;-49
2022/06/01 02:38:39;;;;;;;17.65;15.95;;;11.50;99.90;;;;;;4999622;28;20046;-47
2022/06/01 02:41:05;;;;;;;17.05;15.55;;;11.50;99.90;;;;;;4999436;28;20037;-48
2022/06/01 02:43:31;;;;;;;17.23;15.73;;;11.40;99.90;;;;;;5001838;28;20034;-49
2022/06/01 02:45:56;;;;;;;17.55;15.75;;;11.40;99.90;;;;;;4999536;28;20092;-49
2022/06/01 02:48:22;;;;;;;18.05;16.02;;;11.40;99.90;;;;;;5015397;28;20129;-49
2022/06/01 02:50:48;;;;;;;17.52;16.02;;;11.40;99.90;;;;;;5001754;28;20059;-49
2022/06/01 02:53:14;;;;;;;18.15;16.50;;;11.40;99.90;;;;;;5004274;28;20064;-51
2022/06/01 02:55:39;;;;;;;17.80;16.17;;;11.40;99.90;;;;;;5001098;28;20038;-49
2022/06/01 02:58:05;;;;;;;20.23;18.33;;;11.40;99.90;;;;;;5004658;28;20034;-51
2022/06/01 03:00:40;;;;;;;18.52;16.80;;;11.40;99.90;;;;;;5002844;28;20041;-49
2022/06/01 03:03:08;;;;;;;19.27;17.52;;;11.40;99.90;;;;;;5005857;28;20056;-50
2022/06/01 03:05:38;;;;;;;21.17;19.38;;;11.40;99.90;;;;;;5003048;28;20034;-49
2022/06/01 03:08:04;;;;;;;18.55;16.85;;;11.40;99.90;;;;;;5007113;28;20096;-49
2022/06/01 03:10:30;;;;;;;20.40;18.50;;;11.30;99.90;;;;;;5003098;28;20042;-50
2022/06/01 03:12:56;;;;;;;21.10;19.10;;;11.30;99.90;;;;;;5006383;28;20030;-49
2022/06/01 03:15:23;;;;;;;20.80;18.90;;;11.30;99.90;;;;;;5004517;28;20368;-50
2022/06/01 03:17:49;;;;;;;20.60;18.43;;;11.30;99.90;;;;;;5005654;28;20148;-53
2022/06/01 03:20:18;;;;;;;19.17;17.40;;;11.30;99.90;;;;;;5006558;28;20041;-49
2022/06/01 03:22:44;;;;;;;19.95;18.15;;;11.30;99.90;;;;;;5006481;28;20499;-48
2022/06/01 03:25:15;;;;;;;21.45;19.52;;;11.30;99.90;;;;;;5003052;28;20057;-50
2022/06/01 03:27:41;;;;;;;20.90;19.10;;;11.30;99.90;;;;;;5005600;28;20068;-50
2022/06/01 03:30:10;;;;;;;21.20;19.38;;;11.30;99.90;;;;;;5005758;28;20037;-50
2022/06/01 03:32:36;;;;;;;22.40;20.00;;;11.20;99.90;;;;;;5005568;28;20030;-48
2022/06/01 03:35:04;;;;;;;21.65;19.77;;;11.20;99.90;;;;;;5020061;28;20568;-52
2022/06/01 03:37:31;;;;;;;21.63;19.77;;;11.20;99.90;;;;;;5003036;28;20067;-50
2022/06/01 03:39:56;;;;;;;22.98;20.80;;;11.20;99.90;;;;;;5003805;28;20052;-50
2022/06/01 03:42:22;;;;;;;23.30;20.90;;;11.20;99.90;;;;;;5003182;28;20041;-49
2022/06/01 03:47:32;;;;;;;23.17;21.17;;;11.20;99.90;;;;;;5003467;28;20103;-49
2022/06/01 03:49:58;;;;;;;24.38;22.05;;;11.20;99.90;;;;;;5004493;28;20125;-48
2022/06/01 03:52:25;;;;;;;24.35;22.05;;;11.20;99.90;;;;;;5005884;28;20050;-48
2022/06/01 03:54:51;;;;;;;24.38;22.13;;;11.20;99.90;;;;;;5006012;28;20045;-52
2022/06/01 03:57:16;;;;;;;23.85;21.73;;;11.20;99.90;;;;;;5005417;28;20042;-50
2022/06/01 03:59:42;;;;;;;25.55;23.27;;;11.20;99.90;;;;;;5006033;28;20042;-51
2022/06/01 04:02:08;;;;;;;25.35;23.13;;;11.20;99.90;;;;;;5004868;28;20072;-50
2022/06/01 04:04:34;;;;;;;25.90;23.48;;;11.20;99.90;;;;;;5009931;28;20118;-50
2022/06/01 04:07:00;;;;;;;23.75;21.65;;;11.20;99.90;;;;;;5008120;28;20037;-49
2022/06/01 04:09:29;;;;;;;25.52;23.20;;;11.20;99.90;;;;;;5008780;28;20046;-48
2022/06/01 04:11:55;;;;;;;24.67;22.42;;;11.20;99.90;;;;;;5008521;28;20042;-48
2022/06/01 04:14:22;;;;;;;25.40;23.10;;;11.20;99.90;;;;;;5010310;28;20056;-48
2022/06/01 04:16:48;;;;;;;26.73;24.38;;;11.30;99.90;;;;;;5009170;28;20038;-48
2022/06/01 04:19:14;;;;;;;25.27;22.88;;;11.20;99.90;;;;;;5009698;28;20393;-48
2022/06/01 04:21:43;;;;;;;24.63;22.33;;;11.30;99.90;;;;;;5006864;28;20140;-48
2022/06/01 04:24:14;;;;;;;27.13;24.65;;;11.30;99.90;;;;;;5009967;28;20504;-47
2022/06/01 04:26:41;;;;;;;24.88;22.48;;;11.40;99.90;;;;;;5008232;28;20038;-49
2022/06/01 04:29:06;;;;;;;27.48;25.08;;;11.30;99.90;;;;;;5006825;28;20154;-48
2022/06/01 04:31:32;;;;;;;26.77;24.38;;;11.40;99.90;;;;;;5008074;28;20104;-48
2022/06/01 04:33:58;;;;;;;27.98;25.33;;;11.40;99.90;;;;;;5008046;28;20042;-48
2022/06/01 04:36:24;;;;;;;27.00;24.50;;;11.40;99.90;;;;;;5006680;28;20054;-51
2022/06/01 04:38:49;;;;;;;28.67;26.08;;;11.40;99.90;;;;;;5027248;28;20104;-50
2022/06/01 04:41:16;;;;;;;27.40;24.88;;;11.40;99.90;;;;;;5007510;28;20396;-52
2022/06/01 04:43:41;;;;;;;28.42;25.88;;;11.50;99.90;;;;;;5008304;28;20038;-48
2022/06/01 04:46:07;;;;;;;29.65;26.88;;;12.00;99.90;;;;;;5003584;28;20382;-49
2022/06/01 04:48:33;;;;;;;31.40;28.45;;;12.70;99.90;;;;;;5004799;28;20501;-51
2022/06/01 04:50:59;;;;;;;27.95;25.30;;;13.70;99.90;;;;;;4983093;28;20145;-50
2022/06/01 04:53:25;;;;;;;26.92;24.52;;;14.00;99.90;;;;;;4999404;28;20053;-51
2022/06/01 04:55:51;;;;;;;26.75;24.45;;;14.00;99.90;;;;;;5001400;28;20042;-50
2022/06/01 04:58:17;;;;;;;26.30;23.98;;;14.00;99.90;;;;;;5000369;28;20057;-52
2022/06/01 05:00:44;;;;;;;26.23;23.85;;;14.00;99.90;;;;;;4998586;28;20038;-50
2022/06/01 05:03:10;;;;;;;24.50;22.40;;;13.90;99.90;;;;;;4997860;28;20050;-52
2022/06/01 05:05:39;;;;;;;23.52;21.33;;;13.90;99.90;;;;;;4998876;28;21417;-49
2022/06/01 05:08:09;;;;;;;24.40;22.20;;;13.70;99.90;;;;;;4999407;28;20049;-53
2022/06/01 05:10:35;;;;;;;23.15;21.05;;;13.60;99.90;;;;;;5000174;28;20036;-53
2022/06/01 05:13:02;;;;;;;24.40;22.40;;;13.50;99.90;;;;;;4997997;28;20451;-49
2022/06/01 05:15:28;;;;;;;23.83;21.73;;;13.50;99.90;;;;;;5001233;28;20058;-49
2022/06/01 05:17:53;;;;;;;25.15;22.95;;;13.40;99.90;;;;;;4997348;28;20124;-49
2022/06/01 05:20:19;;;;;;;23.20;21.13;;;13.50;99.90;;;;;;5002244;28;20376;-49
2022/06/01 05:22:45;;;;;;;23.17;21.17;;;13.50;99.90;;;;;;4998119;28;20053;-52
2022/06/01 05:25:10;;;;;;;23.23;21.20;;;13.60;99.90;;;;;;4999166;28;20038;-50
2022/06/01 05:27:37;;;;;;;24.20;22.10;;;13.60;99.90;;;;;;4994872;28;20557;-50
2022/06/01 05:30:04;;;;;;;22.80;20.90;;;13.60;99.90;;;;;;4997913;28;20049;-54
2022/06/01 05:32:30;;;;;;;24.25;22.02;;;13.60;99.90;;;;;;4997638;28;20042;-51
2022/06/01 05:34:57;;;;;;;25.30;22.95;;;13.60;99.90;;;;;;4996753;28;20042;-52
2022/06/01 05:37:22;;;;;;;23.98;21.95;;;13.60;99.90;;;;;;5000338;28;20060;-49
2022/06/01 05:39:48;;;;;;;26.10;23.70;;;13.60;99.90;;;;;;4998802;28;20050;-51
2022/06/01 05:42:13;;;;;;;25.02;22.85;;;13.80;99.90;;;;;;4994561;28;20046;-50
2022/06/01 05:44:39;;;;;;;24.13;22.08;;;14.00;99.90;;;;;;4997911;28;20520;-53
2022/06/01 05:47:05;;;;;;;26.35;22.65;;;;;;;;;;4998111;28;20053;-51
2022/06/01 05:49:31;;;;;;;22.90;20.63;;;14.10;99.90;;;;;;5000677;28;20049;-47
2022/06/01 05:51:57;;;;;;;23.15;20.65;;;14.10;99.90;;;;;;4998798;28;20706;-50
2022/06/01 05:54:23;;;;;;;20.92;18.95;;;14.00;99.90;;;;;;4996978;28;20400;-51
2022/06/01 05:56:49;;;;;;;19.63;17.88;;;13.90;99.90;;;;;;4998315;28;20040;-52
2022/06/01 05:59:15;;;;;;;19.33;17.45;;;13.80;99.90;;;;;;4999946;28;20041;-49
2022/06/01 06:01:41;;;;;;;18.30;16.75;;;13.90;99.90;;;;;;5000874;28;20045;-49
2022/06/01 06:04:07;;;;;;;17.65;16.05;;;13.80;99.90;;;;;;5000158;28;20041;-53
2022/06/01 06:06:33;;;;;;;17.98;16.40;;;13.80;99.90;;;;;;4999732;28;20049;-50
2022/06/01 06:09:03;;;;;;;16.77;15.30;;;13.90;99.90;;;;;;4999293;28;20091;-49
2022/06/01 06:11:33;;;;;;;17.80;15.48;;;14.00;99.90;;;;;;5006769;28;20041;-50
2022/06/01 06:13:59;;;;;;;17.02;15.43;;;14.10;99.90;;;;;;5005585;28;20512;-53
2022/06/01 06:16:27;;;;;;;18.30;16.50;;;14.20;99.90;;;;;;5002948;28;20046;-48
2022/06/01 06:18:56;;;;;;;19.55;17.65;;;14.20;99.90;;;;;;5000770;28;20136;-53
2022/06/01 06:21:22;;;;;;;18.25;16.52;;;14.20;99.90;;;;;;5003482;28;20512;-49
2022/06/01 06:23:48;;;;;;;20.75;15.52;;;14.20;99.90;;;;;;5003828;28;20095;-51
2022/06/01 06:26:14;;;;;;;17.15;15.27;;;14.30;99.90;;;;;;4998567;28;20042;-49
2022/06/01 06:28:40;;;;;;;17.38;15.75;;;14.40;99.90;;;;;;5003351;28;20061;-52
2022/06/01 06:31:06;;;;;;;17.08;15.48;;;14.50;99.90;;;;;;5007622;28;20039;-50
2022/06/01 06:33:31;;;;;;;15.80;13.88;;;14.80;99.90;;;;;;5008674;28;20052;-51
2022/06/01 06:35:57;;;;;;;17.02;15.30;;;14.90;99.90;;;;;;5002451;28;20481;-53
2022/06/01 06:38:26;;;;;;;15.23;13.95;;;15.00;99.90;;;;;;5002496;28;20104;-51
2022/06/01 06:40:54;;;;;;;15.43;14.13;;;14.90;99.90;;;;;;5005898;28;20050;-53
2022/06/01 06:43:21;;;;;;;14.57;13.43;;;15.00;99.90;;;;;;5007646;28;20097;-51
2022/06/01 06:45:50;;;;;;;15.35;13.10;;;15.00;99.90;;;;;;5009636;28;20120;-49
2022/06/01 06:48:17;;;;;;;11.68;9.95;;;15.00;99.90;;;;;;5009138;28;20395;-49
2022/06/01 06:50:43;;;;;;;12.02;10.73;;;15.00;99.90;;;;;;5011913;28;20042;-52
2022/06/01 06:53:09;;;;;;;15.77;12.30;;;14.90;99.90;;;;;;5007046;28;20059;-51
2022/06/01 06:55:35;;;;;;;13.82;12.52;;;15.00;99.90;;;;;;5008096;28;20117;-48
2022/06/01 06:58:00;;;;;;;13.38;12.18;;;15.00;99.90;;;;;;5009235;28;20109;-50
2022/06/01 07:00:26;;;;;;;13.95;12.73;;;15.10;99.90;;;;;;5008860;28;20045;-52
2022/06/01 07:02:52;;;;;;;13.50;12.27;;;15.40;99.90;;;;;;5006604;28;20108;-50
2022/06/01 07:06:08;;;;;;;13.75;12.35;;;15.50;99.90;;;;;;5008321;28;20104;-50
2022/06/01 07:08:05;;;;;;;15.52;13.43;;;15.50;99.90;;;;;;5007292;28;20096;-49
2022/06/01 07:10:31;;;;;;;;;;;15.50;99.90;;;;;;5004701;28;20128;-53
2022/06/01 07:12:56;;;;;;;15.40;13.00;;;15.40;99.90;;;;;;5008237;28;20072;-53
2022/06/01 07:15:22;;;;;;;13.25;12.07;;;15.40;99.90;;;;;;5004522;28;20037;-51
2022/06/01 07:17:48;;;;;;;12.38;11.48;;;15.30;99.90;;;;;;5008058;28;20045;-51
2022/06/01 07:20:13;;;;;;;13.15;11.95;;;15.30;99.90;;;;;;5001174;28;20152;-52
2022/06/01 07:22:39;;;;;;;13.25;12.15;;;15.30;99.90;;;;;;5004006;28;20121;-49
2022/06/01 07:25:05;;;;;;;12.63;10.93;;;15.40;99.90;;;;;;5002390;28;20060;-49
2022/06/01 07:27:30;;;;;;;12.98;11.60;;;15.40;99.90;;;;;;5003452;28;20034;-49
2022/06/01 07:29:56;;;;;;;12.65;11.35;;;15.60;99.90;;;;;;5005583;28;20070;-52
2022/06/01 07:32:21;;;;;;;11.80;10.65;;;15.70;99.90;;;;;;5007632;28;20056;-53
2022/06/01 07:34:47;;;;;;;17.27;10.60;;;15.80;99.90;;;;;;5002886;28;20026;-49
2022/06/01 07:45:25;;;;;;;10.93;10.02;;;15.80;99.90;;;;;;5006695;28;20072;-50
2022/06/01 07:47:51;;;;;;;11.82;10.52;;;15.90;99.90;;;;;;5010011;28;20516;-49
2022/06/01 07:50:16;;;;;;;11.55;10.50;;;16.50;99.90;;;;;;5001919;28;20042;-51
2022/06/01 07:52:42;;;;;;;10.90;10.10;;;16.80;99.90;;;;;;5005369;28;20046;-49
2022/06/01 07:55:09;;;;;;;10.50;9.45;;;17.10;99.90;;;;;;5010213;28;20052;-50
2022/06/01 07:57:35;;;;;;;10.20;9.40;;;17.40;99.90;;;;;;5006536;28;20123;-49
2022/06/01 08:00:02;;;;;;;9.85;9.05;;;17.50;99.90;;;;;;5010322;28;20041;-53
2022/06/01 08:02:27;;;;;;;8.70;8.00;;;17.80;99.90;;;;;;5013199;28;20049;-52
2022/06/01 08:04:53;;;;;;;8.77;8.07;;;17.90;99.90;;;;;;5012576;28;20041;-51
2022/06/01 08:07:18;;;;;;;7.28;6.68;;;18.00;99.90;;;;;;5009033;28;20064;-51
2022/06/01 08:09:44;;;;;;;7.53;6.90;;;18.20;99.90;;;;;;5005193;28;20046;-48
2022/06/01 08:14:54;;;;;;;7.90;5.65;;;18.60;99.90;;;;;;5012473;28;20054;-48
2022/06/01 08:17:20;;;;;;;6.82;6.13;;;18.20;99.90;;;;;;5012388;28;20191;-52
2022/06/01 08:19:46;;;;;;;6.03;5.20;;;18.50;99.90;;;;;;5011182;28;20073;-52
2022/06/01 08:22:12;;;;;;;4.90;4.50;;;18.70;99.90;;;;;;5010934;28;20054;-52
2022/06/01 08:24:38;;;;;;;3.45;3.15;;;18.90;99.90;;;;;;5012469;28;20408;-50
2022/06/01 08:27:03;;;;;;;5.35;4.90;;;18.90;99.90;;;;;;5010623;28;20034;-53
2022/06/01 08:29:29;;;;;;;5.45;5.05;;;19.20;99.90;;;;;;5012127;28;20452;-54
2022/06/01 08:31:54;;;;;;;5.47;5.00;;;19.70;99.90;;;;;;5012498;28;20034;-53
2022/06/01 08:34:20;;;;;;;4.55;4.18;;;19.90;99.90;;;;;;5010569;28;20029;-51
2022/06/01 08:36:47;;;;;;;6.53;5.90;;;19.90;99.90;;;;;;5012082;28;20369;-50
2022/06/01 08:39:13;;;;;;;5.15;4.65;;;19.70;99.90;;;;;;5012583;28;20050;-53
2022/06/01 08:41:39;;;;;;;4.38;3.75;;;19.70;99.90;;;;;;5008025;28;20526;-53
2022/06/01 08:44:18;;;;;;;5.28;4.45;;;19.50;99.90;;;;;;5007122;28;20125;-54
2022/06/01 08:46:45;;;;;;;5.47;2.38;;;;;;;;;;5011334;28;20045;-54
2022/06/01 08:49:19;;;;;;;6.57;2.50;;;17.80;99.90;;;;;;5012599;28;20096;-50
2022/06/01 08:51:44;;;;;;;7.30;2.63;;;16.60;99.90;;;;;;5010009;28;20540;-51
2022/06/01 08:54:10;;;;;;;5.70;2.20;;;15.60;99.90;;;;;;5012437;28;20136;-51
2022/06/01 08:56:42;;;;;;;2.05;0.88;;;13.60;99.90;;;;;;5006977;28;20133;-52
2022/06/01 08:59:29;;;;;;;1.52;0.77;;;12.80;99.90;;;;;;5011064;28;20084;-52
2022/06/01 09:02:34;;;;;;;1.40;1.00;;;12.60;99.90;;;;;;5008837;28;20045;-49
2022/06/01 09:05:45;;;;;;;3.47;1.15;;;12.40;99.90;;;;;;5009989;28;20151;-51
2022/06/01 09:08:55;;;;;;;1.33;1.00;;;12.30;99.90;;;;;;4988449;28;20100;-51
2022/06/01 09:11:30;;;;;;;2.53;1.00;;;12.20;99.90;;;;;;4950735;29;20050;-48
2022/06/01 09:14:18;;;;;;;2.42;0.93;;;12.10;99.90;;;;;;4950249;28;20055;-48
2022/06/01 09:16:49;;;;;;;1.73;1.10;;;12.30;99.90;;;;;;4948812;29;20502;-48
2022/06/01 09:22:41;;;;;;;1.63;0.75;;;13.30;99.90;;;;;;4948048;28;20134;-51
2022/06/01 09:25:20;;;;;;;1.63;1.00;;;13.80;99.90;;;;;;4948625;29;20047;-48
2022/06/01 09:27:49;;;;;;;2.38;0.90;;;14.10;99.90;;;;;;4949521;29;20158;-48
2022/06/01 09:30:24;;;;;;;2.35;0.90;;;14.40;99.90;;;;;;4951137;28;20604;-48
2022/06/01 09:33:20;;;;;;;2.00;1.00;;;14.80;99.90;;;;;;4950315;29;20399;-50
2022/06/01 09:36:03;;;;;;;1.33;0.93;;;14.90;99.90;;;;;;4937192;29;20055;-49
2022/06/01 09:38:46;;;;;;;2.53;1.13;;;15.30;99.90;;;;;;4941869;29;20407;-47
2022/06/01 09:41:23;;;;;;;1.80;1.20;;;15.60;99.90;;;;;;4943649;28;20083;-49
2022/06/01 09:43:53;;;;;;;1.05;0.90;;;15.60;99.90;;;;;;4945255;29;20112;-48
2022/06/01 09:46:35;;;;;;;1.38;1.15;;;15.50;99.90;;;;;;4989631;28;20357;-48
2022/06/01 09:49:18;;;;;;;1.30;1.10;;;15.60;99.90;;;;;;5007771;28;20389;-48
2022/06/01 09:51:46;;;;;;;2.35;1.48;;;15.90;99.90;;;;;;5003386;28;20046;-48
2022/06/01 09:54:30;;;;;;;;;;;16.20;99.90;;;;;;5011160;28;20507;-60
2022/06/01 09:56:56;;;;;;;2.40;1.60;;;16.60;99.90;;;;;;5013350;28;19936;-59
2022/06/01 10:08:26;;;;;;;2.85;2.17;;;17.90;99.90;;;;;;5008513;28;20058;-49
2022/06/01 10:11:17;;;;;;;3.80;2.30;;;18.30;99.90;;;;;;4994814;28;20115;-51
2022/06/01 10:13:52;;;;;;;3.65;2.85;;;18.40;99.90;;;;;;4996374;28;20052;-53
2022/06/01 10:16:31;;;;;;;2.47;2.25;;;18.80;99.90;;;;;;5011996;28;20042;-49
2022/06/01 10:18:59;;;;;;;2.63;2.40;;;18.70;99.90;;;;;;5007801;28;20100;-49
2022/06/01 10:21:27;;;;;;;;;;;18.60;99.90;;;;;;4999755;28;20441;-49
2022/06/01 10:24:12;;;;;;;3.20;2.90;;;18.60;99.90;;;;;;5009552;28;19972;-50
2022/06/01 10:26:43;;;;;;;3.00;2.67;;;19.30;99.90;;;;;;5011267;28;20128;-52
2022/06/01 10:29:15;;;;;;;3.50;3.20;;;19.30;99.90;;;;;;5010041;28;20560;-50
2022/06/01 10:31:46;;;;;;;3.40;2.85;;;18.40;99.90;;;;;;5009860;28;20100;-50
2022/06/01 10:34:41;;;;;;;6.03;3.13;;;17.80;99.90;;;;;;5007328;28;20076;-49
2022/06/01 10:37:28;;;;;;;6.45;3.20;;;17.00;99.90;;;;;;5000740;28;20485;-52
2022/06/01 10:40:09;;;;;;;3.10;2.50;;;16.50;99.90;;;;;;5007687;28;20477;-51
2022/06/01 10:46:08;;;;;;;3.60;1.80;;;15.40;99.90;;;;;;5006863;28;20392;-52
2022/06/01 10:48:38;;;;;;;2.55;1.95;;;15.00;99.90;;;;;;5005973;28;20063;-50
2022/06/01 10:51:25;;;;;;;2.08;1.90;;;14.80;99.90;;;;;;5010636;28;20507;-48
2022/06/01 10:54:10;;;;;;;2.15;1.92;;;14.60;99.90;;;;;;5010305;28;20393;-48
2022/06/01 10:56:36;;;;;;;3.30;2.05;;;14.30;99.90;;;;;;4998829;28;20535;-49
2022/06/01 10:59:05;;;;;;;2.88;1.90;;;14.30;99.90;;;;;;5011505;28;20041;-47
2022/06/01 11:01:48;;;;;;;2.45;2.13;;;14.20;99.90;;;;;;5006947;28;20049;-48
2022/06/01 11:04:39;;;;;;;2.80;2.35;;;14.50;99.90;;;;;;5006219;28;20544;-49
2022/06/01 11:07:39;;;;;;;2.60;2.30;;;14.40;99.90;;;;;;5004040;28;20056;-49
2022/06/01 11:10:42;;;;;;;3.22;2.10;;;14.40;99.90;;;;;;5000315;28;20500;-49
2022/06/01 11:13:35;;;;;;;2.53;2.10;;;14.30;99.90;;;;;;5009448;28;20037;-48
2022/06/01 11:16:23;;;;;;;3.30;2.22;;;14.20;99.90;;;;;;5010324;28;20481;-50
2022/06/01 11:19:13;;;;;;;2.10;1.60;;;14.40;99.90;;;;;;5009651;28;20033;-48
2022/06/01 11:22:16;;;;;;;2.17;1.60;;;14.90;99.90;;;;;;5008762;28;20085;-49
2022/06/01 11:25:15;;;;;;;2.55;1.58;;;15.30;99.90;;;;;;5011085;28;20042;-48
2022/06/01 11:28:03;;;;;;;1.92;1.40;;;15.60;99.90;;;;;;5008265;28;20046;-48
2022/06/01 11:30:44;;;;;;;1.50;1.20;;;15.50;99.90;;;;;;5014513;28;20053;-48
2022/06/01 11:33:18;;;;;;;1.10;1.05;;;15.60;99.90;;;;;;5013455;28;20380;-49
2022/06/01 11:35:58;;;;;;;1.25;1.20;;;15.60;99.90;;;;;;5014622;28;20054;-48
2022/06/01 11:38:34;;;;;;;1.75;1.42;;;15.80;99.90;;;;;;5014424;28;20408;-48
2022/06/01 11:41:11;;;;;;;1.17;1.17;;;16.00;99.90;;;;;;5013822;28;20101;-52
2022/06/01 11:43:49;;;;;;;1.40;1.20;;;16.20;99.90;;;;;;5013323;28;20103;-47
2022/06/01 11:46:22;;;;;;;2.38;1.25;;;16.40;99.90;;;;;;5014180;28;20370;-49
2022/06/01 11:48:54;;;;;;;1.50;1.40;;;16.70;99.90;;;;;;5014484;28;20050;-51
2022/06/01 11:51:37;;;;;;;1.45;1.35;;;17.00;99.90;;;;;;5010735;28;20061;-51
2022/06/01 11:54:14;;;;;;;1.60;1.50;;;17.00;99.90;;;;;;5013970;28;20050;-52
2022/06/01 11:56:54;;;;;;;2.78;1.83;;;17.30;99.90;;;;;;5013512;28;20044;-51
2022/06/01 11:59:23;;;;;;;1.50;1.40;;;17.40;99.90;;;;;;5013025;28;20053;-53
2022/06/01 12:02:03;;;;;;;2.08;1.88;;;17.40;99.90;;;;;;5011024;28;20038;-49
2022/06/01 12:04:51;;;;;;;1.90;1.80;;;17.50;99.90;;;;;;5013928;28;20050;-49
2022/06/01 12:07:28;;;;;;;1.83;1.73;;;18.00;99.90;;;;;;5011729;28;20053;-49
2022/06/01 12:10:06;;;;;;;2.22;1.80;;;18.50;99.90;;;;;;5006776;28;20433;-50
2022/06/01 12:12:34;;;;;;;1.83;1.73;;;18.30;99.90;;;;;;5005632;28;20034;-51
2022/06/01 12:15:32;;;;;;;1.58;1.42;;;18.60;99.90;;;;;;5012824;28;20401;-50
2022/06/01 12:18:02;;;;;;;0.98;0.88;;;18.70;99.90;;;;;;5001101;28;20501;-48
2022/06/01 12:20:33;;;;;;;1.15;1.05;;;18.30;99.90;;;;;;5009285;28;20038;-50
2022/06/01 12:28:56;;;;;;;1.50;1.02;;;18.10;99.90;;;;;;5007611;28;20405;-52
2022/06/01 12:31:24;;;;;;;1.30;1.20;;;17.70;99.90;;;;;;5007222;28;20060;-53
2022/06/01 12:34:04;;;;;;;1.67;0.90;;;17.90;99.90;;;;;;5009491;28;20492;-50
2022/06/01 12:36:53;;;;;;;2.10;1.08;;;18.00;99.90;;;;;;5008008;28;20391;-50
2022/06/01 12:39:37;;;;;;;1.25;1.15;;;18.00;99.90;;;;;;5004295;28;20127;-54
2022/06/01 12:42:18;;;;;;;0.88;0.70;;;18.20;99.90;;;;;;5004743;28;20041;-51
2022/06/01 12:44:47;;;;;;;1.85;1.10;;;18.60;99.90;;;;;;5009216;28;20117;-51
2022/06/01 12:47:23;;;;;;;1.00;1.00;;;19.00;99.90;;;;;;5008752;28;20563;-50
2022/06/01 12:49:48;;;;;;;1.88;1.13;;;19.10;99.90;;;;;;5008006;28;20401;-51
2022/06/01 12:52:23;;;;;;;1.42;1.10;;;19.10;99.90;;;;;;5008036;28;20045;-51
2022/06/01 12:54:53;;;;;;;2.30;1.50;;;18.90;99.90;;;;;;5006628;28;20076;-52
2022/06/01 12:57:32;;;;;;;2.30;1.40;;;18.80;99.90;;;;;;5008709;28;20049;-50
2022/06/01 13:00:03;;;;;;;1.50;1.40;;;18.40;99.90;;;;;;5008635;28;20038;-49
2022/06/01 13:02:32;;;;;;;2.78;1.33;;;18.20;99.90;;;;;;5007557;28;20504;-48
2022/06/01 13:04:58;;;;;;;3.60;1.67;;;18.20;99.90;;;;;;5009374;28;20099;-52
2022/06/01 13:07:30;;;;;;;1.25;1.20;;;18.50;99.90;;;;;;5006940;28;20037;-50
2022/06/01 13:10:28;;;;;;;1.23;1.10;;;18.80;99.90;;;;;;5010450;28;20085;-51
2022/06/01 13:13:06;;;;;;;1.70;1.15;;;18.80;99.90;;;;;;4997011;28;20054;-51
2022/06/01 13:15:32;;;;;;;1.23;1.08;;;18.60;99.90;;;;;;5011628;28;20057;-50
2022/06/01 13:18:01;;;;;;;1.95;1.15;;;18.60;99.90;;;;;;5011563;28;20120;-51
2022/06/01 13:20:42;;;;;;;2.38;1.58;;;18.40;99.90;;;;;;5011892;28;20133;-52
2022/06/01 13:23:31;;;;;;;1.75;1.42;;;18.10;99.90;;;;;;5011908;28;20045;-49
2022/06/01 13:26:02;;;;;;;1.83;1.40;;;18.20;99.90;;;;;;5010223;28;20042;-53
2022/06/01 13:28:28;;;;;;;1.35;1.20;;;18.10;99.90;;;;;;5009017;28;20412;-52
2022/06/01 13:30:56;;;;;;;2.35;1.55;;;18.00;99.90;;;;;;5011097;28;20046;-51
2022/06/01 13:33:38;;;;;;;1.67;1.58;;;18.10;99.90;;;;;;5010921;28;20050;-52
2022/06/01 13:36:07;;;;;;;1.25;1.23;;;18.60;99.90;;;;;;5007023;28;20042;-49
2022/06/01 13:38:59;;;;;;;2.80;1.52;;;18.60;99.90;;;;;;5006891;28;20033;-52